createdAt,value
2018-09-19T00:01:24.313Z,10.20
2018-09-19T00:03:51.627Z,10.97
2018-09-19T00:06:19.002Z,10.13
2018-09-19T00:08:46.655Z,9.97
2018-09-19T00:11:14.401Z,9.30
2018-09-19T00:13:41.897Z,9.30
2018-09-19T00:16:09.219Z,9.83
2018-09-19T00:18:36.558Z,9.97
2018-09-19T00:21:04.074Z,10.80
2018-09-19T00:23:31.707Z,9.20
2018-09-19T00:25:59.057Z,12.70
2018-09-19T00:28:26.455Z,10.20
2018-09-19T00:30:53.928Z,10.50
2018-09-19T00:33:21.517Z,10.67
2018-09-19T00:35:49.243Z,9.63
2018-09-19T00:38:16.581Z,9.67
2018-09-19T00:40:43.901Z,10.90
2018-09-19T00:43:11.207Z,13.70
2018-09-19T00:45:38.770Z,10.70
2018-09-19T00:48:06.427Z,11.17
2018-09-19T00:50:33.783Z,11.60
2018-09-19T00:53:01.171Z,10.23
2018-09-19T00:55:28.498Z,11.43
2018-09-19T00:57:56.521Z,10.87
2018-09-19T01:00:23.877Z,10.03
2018-09-19T01:02:51.202Z,10.53
2018-09-19T01:05:18.571Z,11.77
2018-09-19T01:07:46.000Z,12.50
2018-09-19T01:10:13.340Z,13.93
2018-09-19T01:12:40.718Z,12.23
2018-09-19T01:15:08.078Z,12.90
2018-09-19T01:17:35.435Z,12.57
2018-09-19T01:20:02.979Z,12.07
2018-09-19T01:22:30.342Z,11.33
2018-09-19T01:24:57.657Z,12.83
2018-09-19T01:27:24.993Z,13.83
2018-09-19T01:29:52.307Z,11.23
2018-09-19T01:32:19.801Z,12.47
2018-09-19T01:34:47.205Z,11.57
2018-09-19T01:37:14.558Z,14.20
2018-09-19T01:39:41.900Z,12.30
2018-09-19T01:42:09.228Z,12.80
2018-09-19T01:44:36.687Z,11.67
2018-09-19T01:47:04.019Z,13.10
2018-09-19T01:49:31.370Z,11.23
2018-09-19T01:51:59.023Z,10.90
2018-09-19T01:54:26.468Z,11.47
2018-09-19T01:56:54.382Z,10.33
2018-09-19T01:59:21.933Z,11.47
2018-09-19T02:01:49.405Z,12.33
2018-09-19T02:04:16.756Z,12.73
2018-09-19T02:06:44.267Z,12.37
2018-09-19T02:09:13.024Z,12.83
2018-09-19T02:11:41.158Z,11.07
2018-09-19T02:14:09.156Z,10.60
2018-09-19T02:16:36.891Z,11.57
2018-09-19T02:19:04.238Z,12.23
2018-09-19T02:21:31.598Z,12.27
2018-09-19T02:23:58.923Z,11.53
2018-09-19T02:26:26.305Z,12.00
2018-09-19T02:28:53.759Z,11.20
2018-09-19T02:31:21.107Z,14.40
2018-09-19T02:33:48.551Z,11.60
2018-09-19T02:36:27.080Z,13.10
2018-09-19T02:38:56.523Z,12.13
2018-09-19T02:41:23.921Z,12.30
2018-09-19T02:43:51.835Z,11.10
2018-09-19T02:46:19.147Z,13.10
2018-09-19T02:48:47.478Z,11.37
2018-09-19T02:51:15.552Z,12.33
2018-09-19T02:53:43.083Z,11.50
2018-09-19T02:56:10.376Z,12.00
2018-09-19T02:58:37.745Z,12.87
2018-09-19T03:01:05.554Z,11.77
2018-09-19T03:03:32.878Z,12.10
2018-09-19T03:06:00.365Z,12.53
2018-09-19T03:08:28.156Z,11.53
2018-09-19T03:10:55.513Z,11.40
2018-09-19T03:13:23.018Z,13.03
2018-09-19T03:15:50.488Z,12.30
2018-09-19T03:18:18.065Z,14.73
2018-09-19T03:20:45.390Z,13.23
2018-09-19T03:23:12.748Z,12.40
2018-09-19T03:25:40.113Z,11.53
2018-09-19T03:28:08.055Z,12.10
2018-09-19T03:30:35.472Z,12.60
2018-09-19T03:33:03.105Z,10.90
2018-09-19T03:35:30.517Z,11.57
2018-09-19T03:37:57.812Z,11.50
2018-09-19T03:40:25.162Z,12.50
2018-09-19T03:42:52.511Z,11.60
2018-09-19T03:45:20.578Z,13.67
2018-09-19T03:47:48.075Z,11.90
2018-09-19T03:50:15.428Z,13.30
2018-09-19T03:52:43.058Z,11.20
2018-09-19T03:55:10.600Z,10.93
2018-09-19T03:57:38.162Z,10.67
2018-09-19T04:00:05.738Z,11.87
2018-09-19T04:02:33.180Z,10.50
2018-09-19T04:05:00.601Z,11.70
2018-09-19T04:07:27.964Z,12.23
2018-09-19T04:09:55.278Z,11.23
2018-09-19T04:12:22.634Z,15.47
2018-09-19T04:14:50.019Z,12.83
2018-09-19T04:17:17.359Z,10.50
2018-09-19T04:19:44.779Z,12.73
2018-09-19T04:22:12.294Z,11.27
2018-09-19T04:24:39.684Z,10.67
2018-09-19T04:27:07.219Z,11.10
2018-09-19T04:29:34.708Z,12.20
2018-09-19T04:32:02.510Z,10.50
2018-09-19T04:34:29.994Z,13.03
2018-09-19T04:36:57.588Z,11.30
2018-09-19T04:39:25.143Z,13.60
2018-09-19T04:41:52.503Z,10.80
2018-09-19T04:44:19.857Z,12.80
2018-09-19T04:46:47.216Z,11.30
2018-09-19T04:49:14.762Z,12.13
2018-09-19T04:51:42.093Z,11.13
2018-09-19T04:54:09.602Z,12.73
2018-09-19T04:56:37.476Z,12.93
2018-09-19T04:59:05.047Z,14.57
2018-09-19T05:01:32.472Z,13.67
2018-09-19T05:03:59.939Z,12.80
2018-09-19T05:06:27.488Z,12.80
2018-09-19T05:08:55.067Z,11.00
2018-09-19T05:11:22.554Z,11.70
2018-09-19T05:13:50.481Z,11.50
2018-09-19T05:16:18.385Z,11.80
2018-09-19T05:18:45.730Z,11.70
2018-09-19T05:21:13.230Z,12.43
2018-09-19T05:23:40.577Z,10.80
2018-09-19T05:26:08.349Z,10.90
2018-09-19T05:28:35.726Z,13.23
2018-09-19T05:31:03.321Z,13.20
2018-09-19T05:33:30.762Z,14.37
2018-09-19T05:35:58.237Z,12.50
2018-09-19T05:38:25.736Z,12.50
2018-09-19T05:40:53.242Z,12.10
2018-09-19T05:43:21.316Z,12.40
2018-09-19T05:45:48.700Z,12.93
2018-09-19T05:48:16.111Z,12.80
2018-09-19T05:50:43.723Z,13.07
2018-09-19T05:53:11.081Z,11.43
2018-09-19T05:55:38.585Z,14.80
2018-09-19T05:58:06.325Z,13.67
2018-09-19T06:00:33.823Z,14.50
2018-09-19T06:03:01.188Z,13.03
2018-09-19T06:05:28.720Z,14.00
2018-09-19T06:07:56.417Z,12.37
2018-09-19T06:10:23.816Z,13.77
2018-09-19T06:12:51.204Z,12.27
2018-09-19T06:15:18.729Z,10.97
2018-09-19T06:17:46.131Z,13.67
2018-09-19T06:20:13.511Z,12.20
2018-09-19T06:22:40.849Z,13.30
2018-09-19T06:25:08.216Z,12.47
2018-09-19T06:27:36.104Z,13.23
2018-09-19T06:30:03.675Z,13.60
2018-09-19T06:32:31.109Z,14.57
2018-09-19T06:34:58.780Z,12.60
2018-09-19T06:37:26.125Z,12.40
2018-09-19T06:39:53.541Z,13.87
2018-09-19T06:42:20.884Z,13.30
2018-09-19T06:44:48.226Z,14.37
2018-09-19T06:47:15.717Z,13.37
2018-09-19T06:49:43.066Z,14.27
2018-09-19T06:52:10.482Z,13.73
2018-09-19T06:54:37.795Z,15.80
2018-09-19T06:57:05.210Z,13.20
2018-09-19T06:59:32.713Z,13.73
2018-09-19T07:02:00.074Z,13.67
2018-09-19T07:04:27.661Z,13.90
2018-09-19T07:06:55.086Z,14.30
2018-09-19T07:09:22.397Z,13.10
2018-09-19T07:11:49.711Z,15.80
2018-09-19T07:14:17.198Z,13.53
2018-09-19T07:16:44.610Z,14.23
2018-09-19T07:19:11.936Z,14.43
2018-09-19T07:21:39.289Z,16.20
2018-09-19T07:24:06.617Z,14.33
2018-09-19T07:26:34.061Z,15.30
2018-09-19T07:29:01.413Z,14.13
2018-09-19T07:31:28.713Z,13.67
2018-09-19T07:33:56.076Z,12.63
2018-09-19T07:36:23.514Z,13.87
2018-09-19T07:38:50.894Z,15.10
2018-09-19T07:41:18.270Z,13.63
2018-09-19T07:43:45.614Z,13.70
2018-09-19T07:46:12.972Z,11.03
2018-09-19T07:48:40.794Z,13.40
2018-09-19T07:51:12.196Z,13.97
2018-09-19T07:53:39.562Z,14.60
2018-09-19T07:56:06.899Z,14.00
2018-09-19T07:58:34.788Z,13.30
2018-09-19T08:01:02.188Z,13.13
2018-09-19T08:03:29.682Z,13.77
2018-09-19T08:05:57.276Z,12.80
2018-09-19T08:08:24.831Z,12.50
2018-09-19T08:10:52.723Z,13.70
2018-09-19T08:13:20.079Z,12.37
2018-09-19T08:15:47.568Z,14.30
2018-09-19T08:18:14.923Z,11.50
2018-09-19T08:20:42.275Z,13.27
2018-09-19T08:23:10.925Z,11.07
2018-09-19T08:25:38.650Z,11.40
2018-09-19T08:28:05.975Z,10.77
2018-09-19T08:30:33.483Z,11.20
2018-09-19T08:33:00.794Z,11.73
2018-09-19T08:35:28.153Z,10.40
2018-09-19T08:37:55.644Z,12.30
2018-09-19T08:40:23.038Z,10.33
2018-09-19T08:42:50.382Z,13.80
2018-09-19T08:45:17.758Z,11.23
2018-09-19T08:47:45.080Z,10.60
2018-09-19T08:50:12.796Z,10.10
2018-09-19T08:52:40.788Z,11.67
2018-09-19T08:55:08.253Z,10.13
2018-09-19T08:57:35.745Z,11.90
2018-09-19T09:00:03.126Z,10.80
2018-09-19T09:02:30.459Z,11.43
2018-09-19T09:04:58.014Z,11.60
2018-09-19T09:07:25.356Z,9.90
2018-09-19T09:09:52.690Z,13.87
2018-09-19T09:12:20.122Z,12.37
2018-09-19T09:14:47.588Z,11.33
2018-09-19T09:17:14.942Z,10.23
2018-09-19T09:19:42.519Z,10.50
2018-09-19T09:22:09.897Z,10.87
2018-09-19T09:24:37.230Z,11.50
2018-09-19T09:27:04.942Z,10.27
2018-09-19T09:29:32.229Z,10.40
2018-09-19T09:31:59.620Z,11.40
2018-09-19T09:34:26.949Z,9.30
2018-09-19T09:36:54.402Z,11.07
2018-09-19T09:39:21.852Z,10.10
2018-09-19T09:41:49.581Z,11.13
2018-09-19T09:44:16.969Z,9.50
2018-09-19T09:46:44.554Z,10.90
2018-09-19T09:49:11.889Z,9.70
2018-09-19T09:51:39.254Z,9.20
2018-09-19T09:54:06.579Z,9.53
2018-09-19T09:56:33.911Z,9.33
2018-09-19T09:59:01.218Z,10.33
2018-09-19T10:01:28.546Z,9.40
2018-09-19T10:03:55.882Z,9.43
2018-09-19T10:06:23.221Z,8.87
2018-09-19T10:08:50.657Z,8.93
2018-09-19T10:11:17.978Z,10.00
2018-09-19T10:13:45.405Z,8.73
2018-09-19T10:16:12.715Z,9.53
2018-09-19T10:18:40.053Z,8.30
2018-09-19T10:21:07.365Z,10.73
2018-09-19T10:23:34.701Z,9.20
2018-09-19T10:26:03.270Z,10.83
2018-09-19T10:28:30.597Z,9.10
2018-09-19T10:30:58.004Z,10.07
2018-09-19T10:33:25.448Z,9.70
2018-09-19T10:35:52.803Z,8.63
2018-09-19T10:38:20.170Z,9.57
2018-09-19T10:40:47.524Z,8.57
2018-09-19T10:43:14.971Z,8.70
2018-09-19T10:45:42.293Z,9.57
2018-09-19T10:48:09.759Z,9.40
2018-09-19T10:50:37.115Z,8.33
2018-09-19T10:53:04.453Z,8.67
2018-09-19T10:55:31.790Z,8.30
2018-09-19T10:57:59.513Z,8.80
2018-09-19T11:00:27.066Z,9.07
2018-09-19T11:02:54.450Z,8.10
2018-09-19T11:05:21.797Z,7.90
2018-09-19T11:07:49.216Z,7.90
2018-09-19T11:10:16.593Z,7.73
2018-09-19T11:12:43.996Z,7.50
2018-09-19T11:15:11.314Z,8.70
2018-09-19T11:17:38.686Z,8.83
2018-09-19T11:20:06.030Z,9.20
2018-09-19T11:22:33.387Z,9.03
2018-09-19T11:25:00.834Z,9.33
2018-09-19T11:27:28.319Z,8.53
2018-09-19T11:32:30.543Z,8.67
2018-09-19T11:34:58.410Z,8.23
2018-09-19T11:37:25.746Z,8.87
2018-09-19T11:39:53.044Z,8.20
2018-09-19T11:42:20.359Z,8.50
2018-09-19T11:44:47.831Z,9.70
2018-09-19T11:47:15.149Z,10.30
2018-09-19T11:49:42.496Z,7.80
2018-09-19T11:52:09.833Z,11.10
2018-09-19T11:54:37.371Z,8.00
2018-09-19T11:57:04.749Z,7.90
2018-09-19T11:59:32.154Z,8.63
2018-09-19T12:01:59.757Z,7.27
2018-09-19T12:04:27.242Z,8.03
2018-09-19T12:06:54.560Z,7.30
2018-09-19T12:09:21.864Z,7.60
2018-09-19T12:11:49.349Z,6.90
2018-09-19T12:14:16.835Z,7.80
2018-09-19T12:16:44.271Z,7.07
2018-09-19T12:19:11.601Z,9.27
2018-09-19T12:21:38.993Z,6.97
2018-09-19T12:24:06.384Z,7.70
2018-09-19T12:26:33.803Z,7.27
2018-09-19T12:29:01.070Z,7.43
2018-09-19T12:31:28.521Z,7.47
2018-09-19T12:33:55.850Z,8.40
2018-09-19T12:36:24.165Z,9.03
2018-09-19T12:38:51.499Z,7.10
2018-09-19T12:41:19.066Z,9.77
2018-09-19T12:43:46.385Z,7.03
2018-09-19T12:46:13.879Z,9.20
2018-09-19T12:48:41.253Z,8.77
2018-09-19T12:51:08.568Z,8.43
2018-09-19T12:53:35.911Z,8.80
2018-09-19T12:56:03.287Z,8.40
2018-09-19T12:58:30.677Z,7.60
2018-09-19T13:00:58.005Z,8.03
2018-09-19T13:03:25.315Z,10.13
2018-09-19T13:05:52.618Z,8.10
2018-09-19T13:08:19.956Z,9.77
2018-09-19T13:10:47.324Z,8.80
2018-09-19T13:13:14.661Z,8.50
2018-09-19T13:15:42.206Z,8.33
2018-09-19T13:18:09.549Z,7.63
2018-09-19T13:20:36.935Z,10.47
2018-09-19T13:23:04.410Z,8.57
2018-09-19T13:25:31.745Z,8.03
2018-09-19T13:27:59.094Z,9.07
2018-09-19T13:30:26.451Z,8.93
2018-09-19T13:32:53.775Z,7.67
2018-09-19T13:35:21.179Z,10.23
2018-09-19T13:37:48.602Z,7.70
2018-09-19T13:40:15.979Z,7.60
2018-09-19T13:42:43.985Z,8.77
2018-09-19T13:45:11.750Z,7.80
2018-09-19T13:47:39.102Z,7.90
2018-09-19T13:50:10.274Z,8.10
2018-09-19T13:52:37.622Z,8.40
2018-09-19T13:55:05.161Z,8.17
2018-09-19T13:57:33.715Z,10.40
2018-09-19T14:00:01.215Z,8.80
2018-09-19T14:02:28.714Z,9.93
2018-09-19T14:04:56.136Z,8.60
2018-09-19T14:07:23.463Z,10.00
2018-09-19T14:09:51.069Z,9.20
2018-09-19T14:12:18.684Z,8.43
2018-09-19T14:14:46.015Z,8.87
2018-09-19T14:17:13.658Z,7.23
2018-09-19T14:19:40.985Z,9.00
2018-09-19T14:22:08.354Z,8.10
2018-09-19T14:24:35.702Z,9.57
2018-09-19T14:27:03.073Z,9.47
2018-09-19T14:29:30.523Z,11.57
2018-09-19T14:31:57.887Z,8.67
2018-09-19T14:34:25.430Z,8.00
2018-09-19T14:36:53.048Z,8.87
2018-09-19T14:39:20.610Z,7.90
2018-09-19T14:41:47.921Z,7.50
2018-09-19T14:44:15.383Z,7.20
2018-09-19T14:46:43.182Z,8.03
2018-09-19T14:49:10.701Z,8.87
2018-09-19T14:51:38.036Z,9.93
2018-09-19T14:54:05.426Z,8.20
2018-09-19T14:56:32.730Z,9.67
2018-09-19T14:59:00.046Z,8.00
2018-09-19T15:01:27.442Z,11.03
2018-09-19T15:03:54.786Z,8.17
2018-09-19T15:06:22.284Z,8.10
2018-09-19T15:08:49.846Z,7.80
2018-09-19T15:11:17.225Z,7.83
2018-09-19T15:13:44.852Z,9.90
2018-09-19T15:16:12.240Z,8.20
2018-09-19T15:18:39.591Z,10.10
2018-09-19T15:21:06.968Z,7.90
2018-09-19T15:23:34.542Z,10.57
2018-09-19T15:26:01.875Z,8.03
2018-09-19T15:28:29.440Z,8.43
2018-09-19T15:30:56.897Z,7.90
2018-09-19T15:33:24.369Z,7.50
2018-09-19T15:35:51.690Z,7.20
2018-09-19T15:38:19.137Z,8.03
2018-09-19T15:40:46.485Z,9.60
2018-09-19T15:43:13.853Z,8.10
2018-09-19T15:45:41.193Z,13.53
2018-09-19T15:48:08.522Z,7.70
2018-09-19T15:50:36.310Z,10.20
2018-09-19T15:53:03.645Z,7.93
2018-09-19T15:55:31.312Z,7.53
2018-09-19T15:57:58.925Z,8.07
2018-09-19T16:00:26.947Z,11.47
2018-09-19T16:02:54.532Z,8.40
2018-09-19T16:05:21.882Z,9.13
2018-09-19T16:07:49.254Z,7.50
2018-09-19T16:10:16.690Z,7.93
2018-09-19T16:12:44.174Z,10.50
2018-09-19T16:15:11.812Z,7.43
2018-09-19T16:17:39.333Z,9.57
2018-09-19T16:20:06.964Z,7.70
2018-09-19T16:22:34.504Z,7.47
2018-09-19T16:25:02.133Z,7.80
2018-09-19T16:27:29.996Z,7.37
2018-09-19T16:30:03.994Z,7.40
2018-09-19T16:32:31.549Z,7.83
2018-09-19T16:34:58.935Z,8.13
2018-09-19T16:37:26.390Z,7.50
2018-09-19T16:39:53.765Z,8.67
2018-09-19T16:42:21.358Z,8.40
2018-09-19T16:44:48.691Z,9.80
2018-09-19T16:47:16.110Z,7.70
2018-09-19T16:49:43.436Z,10.40
2018-09-19T16:52:10.816Z,7.50
2018-09-19T16:54:38.252Z,7.67
2018-09-19T16:57:05.590Z,8.73
2018-09-19T16:59:32.973Z,7.70
2018-09-19T17:02:00.662Z,7.67
2018-09-19T17:04:28.274Z,8.93
2018-09-19T17:06:55.868Z,7.80
2018-09-19T17:09:23.262Z,9.20
2018-09-19T17:11:50.685Z,9.00
2018-09-19T17:14:18.093Z,7.70
2018-09-19T17:16:45.477Z,9.63
2018-09-19T17:19:12.860Z,20.10
2018-09-19T17:21:40.242Z,12.73
2018-09-19T17:24:07.613Z,8.57
2018-09-19T17:26:35.210Z,7.13
2018-09-19T17:29:02.652Z,7.53
2018-09-19T17:31:30.033Z,8.20
2018-09-19T17:33:57.668Z,8.57
2018-09-19T17:36:25.008Z,7.10
2018-09-19T17:38:52.436Z,9.37
2018-09-19T17:41:19.904Z,8.20
2018-09-19T17:43:47.576Z,16.47
2018-09-19T17:46:14.962Z,18.17
2018-09-19T17:48:42.330Z,10.67
2018-09-19T17:51:09.739Z,27.43
2018-09-19T17:53:37.514Z,13.40
2018-09-19T17:56:05.002Z,9.93
2018-09-19T17:58:32.394Z,7.67
2018-09-19T18:00:59.762Z,10.83
2018-09-19T18:03:27.206Z,9.20
2018-09-19T18:05:54.697Z,9.53
2018-09-19T18:08:22.188Z,7.70
2018-09-19T18:10:49.460Z,9.70
2018-09-19T18:13:16.868Z,8.77
2018-09-19T18:15:44.301Z,9.80
2018-09-19T18:18:11.676Z,8.40
2018-09-19T18:20:39.441Z,7.20
2018-09-19T18:23:07.183Z,7.20
2018-09-19T18:25:34.913Z,9.30
2018-09-19T18:28:02.267Z,10.43
2018-09-19T18:30:29.972Z,8.40
2018-09-19T18:32:57.843Z,10.50
2018-09-19T18:35:25.430Z,7.60
2018-09-19T18:37:52.788Z,9.63
2018-09-19T18:40:20.307Z,9.30
2018-09-19T18:42:47.662Z,8.80
2018-09-19T18:45:15.030Z,8.00
2018-09-19T18:47:42.530Z,8.27
2018-09-19T18:50:10.275Z,7.73
2018-09-19T18:52:37.616Z,7.63
2018-09-19T18:55:05.003Z,10.10
2018-09-19T18:57:32.573Z,9.63
2018-09-19T18:59:59.921Z,9.83
2018-09-19T19:02:27.323Z,9.00
2018-09-19T19:04:54.955Z,8.37
2018-09-19T19:07:22.518Z,8.73
2018-09-19T19:09:50.002Z,9.13
2018-09-19T19:14:51.829Z,14.87
2018-09-19T19:17:19.341Z,25.00
2018-09-19T19:19:46.810Z,9.60
2018-09-19T19:22:14.202Z,8.00
2018-09-19T19:24:42.841Z,8.37
2018-09-19T19:27:10.422Z,12.30
2018-09-19T19:29:38.024Z,9.87
2018-09-19T19:32:05.739Z,10.23
2018-09-19T19:34:33.265Z,8.97
2018-09-19T19:37:00.672Z,9.07
2018-09-19T19:39:28.136Z,9.00
2018-09-19T19:41:55.476Z,8.80
2018-09-19T19:44:22.853Z,8.23
2018-09-19T19:46:50.413Z,7.20
2018-09-19T19:49:17.769Z,7.57
2018-09-19T19:51:45.111Z,8.80
2018-09-19T19:54:12.465Z,9.57
2018-09-19T19:56:39.944Z,8.30
2018-09-19T19:59:07.435Z,10.43
2018-09-19T20:01:34.887Z,9.87
2018-09-19T20:04:02.310Z,10.70
2018-09-19T20:06:29.886Z,9.40
2018-09-19T20:08:57.390Z,9.97
2018-09-19T20:11:24.857Z,10.10
2018-09-19T20:13:52.178Z,10.50
2018-09-19T20:16:19.806Z,8.83
2018-09-19T20:18:47.210Z,8.87
2018-09-19T20:21:14.698Z,10.20
2018-09-19T20:23:42.032Z,7.97
2018-09-19T20:26:09.365Z,9.83
2018-09-19T20:28:36.695Z,8.53
2018-09-19T20:31:04.197Z,9.93
2018-09-19T20:33:31.527Z,9.20
2018-09-19T20:35:59.015Z,9.47
2018-09-19T20:38:26.478Z,8.97
2018-09-19T20:40:53.830Z,9.20
2018-09-19T20:43:21.152Z,9.03
2018-09-19T20:45:48.475Z,10.60
2018-09-19T20:48:15.918Z,10.80
2018-09-19T20:50:43.505Z,9.67
2018-09-19T20:53:10.855Z,11.23
2018-09-19T20:55:38.298Z,8.27
2018-09-19T20:58:06.028Z,10.13
2018-09-19T21:00:33.477Z,8.83
2018-09-19T21:03:00.844Z,9.57
2018-09-19T21:05:28.672Z,9.60
2018-09-19T21:07:56.195Z,8.80
2018-09-19T21:10:23.685Z,10.40
2018-09-19T21:12:51.002Z,9.00
2018-09-19T21:15:18.376Z,9.50
2018-09-19T21:17:45.790Z,9.27
2018-09-19T21:20:13.275Z,10.40
2018-09-19T21:22:40.674Z,9.40
2018-09-19T21:25:08.270Z,9.80
2018-09-19T21:27:35.624Z,8.93
2018-09-19T21:30:03.209Z,8.97
2018-09-19T21:32:30.764Z,8.17
2018-09-19T21:34:58.141Z,8.60
2018-09-19T21:37:25.474Z,9.30
2018-09-19T21:39:53.000Z,9.40
2018-09-19T21:42:20.459Z,10.73
2018-09-19T21:44:47.809Z,9.60
2018-09-19T21:47:15.168Z,10.43
2018-09-19T21:49:42.630Z,8.93
2018-09-19T21:52:09.977Z,9.73
2018-09-19T21:54:37.460Z,9.07
2018-09-19T21:57:04.849Z,9.00
2018-09-19T21:59:32.394Z,9.90
2018-09-19T22:02:03.553Z,9.23
2018-09-19T22:04:30.884Z,10.40
2018-09-19T22:06:58.202Z,9.00
2018-09-19T22:09:25.599Z,10.23
2018-09-19T22:11:52.975Z,9.50
2018-09-19T22:14:20.549Z,12.13
2018-09-19T22:16:47.852Z,9.17
2018-09-19T22:19:15.601Z,9.40
2018-09-19T22:21:43.138Z,8.93
2018-09-19T22:24:10.572Z,9.03
2018-09-19T22:26:38.893Z,9.70
2018-09-19T22:29:06.347Z,8.60
2018-09-19T22:31:33.995Z,10.10
2018-09-19T22:34:01.512Z,8.87
2018-09-19T22:36:29.098Z,10.23
2018-09-19T22:38:56.737Z,9.97
2018-09-19T22:41:24.295Z,11.73
2018-09-19T22:43:52.213Z,10.20
2018-09-19T22:46:19.802Z,10.00
2018-09-19T22:48:47.863Z,8.83
2018-09-19T22:51:15.314Z,9.07
2018-09-19T22:53:42.777Z,8.47
2018-09-19T22:56:10.138Z,9.70
2018-09-19T22:58:37.518Z,8.97
2018-09-19T23:01:04.918Z,9.37
2018-09-19T23:03:32.526Z,10.03
2018-09-19T23:06:00.172Z,9.53
2018-09-19T23:08:27.585Z,11.00
2018-09-19T23:10:54.965Z,8.80
2018-09-19T23:13:22.360Z,10.47
2018-09-19T23:15:50.046Z,10.03
2018-09-19T23:18:17.542Z,10.00
2018-09-19T23:20:45.202Z,9.40
2018-09-19T23:23:12.586Z,9.23
2018-09-19T23:25:39.934Z,9.57
2018-09-19T23:28:07.575Z,9.30
2018-09-19T23:30:34.971Z,10.20
2018-09-19T23:33:02.310Z,8.73
2018-09-19T23:35:29.812Z,11.70
2018-09-19T23:37:57.368Z,9.97
2018-09-19T23:40:24.969Z,9.83
2018-09-19T23:42:52.520Z,10.17
2018-09-19T23:45:19.966Z,9.30
2018-09-19T23:47:47.337Z,9.63
2018-09-19T23:50:14.840Z,9.83
2018-09-19T23:52:42.482Z,8.97
2018-09-19T23:55:09.830Z,9.17
2018-09-19T23:57:37.282Z,11.80
